Long Hua — VRFR5 — position and weather

sailwx.info

Track history (hours):
 
Tides and Currents Weather Stations Pressure Air Temp Water Temp Dewpoint Dewpoint Depression Visibility Wind Speed Wind Dir Waves Ship Positions

Long Hua

Last reported at 2015-Apr-17 22:32 UTC. Time now 2015-Apr-18 03:26 UTC.
Position N 36°02' E 120°19'.

Length 180 m; draft 10 m.

MMSI: 477622800.

Date/timePositionNaut miles runAvg speedWind from/ knotsBaromVisibWave heightAir tempDewpointWater temp
2015-Apr-17 22:32N 36°02' E 120°19'9 9.7
2015-Apr-17 21:33N 36°00' E 120°30'29811.4
2015-Apr-16 19:32N 31°37' E 123°17'2210.4
2015-Apr-16 17:28N 31°15' E 123°18'39812.4
2015-Apr-15 09:26N 25°15' E 120°06'1513.5
2015-Apr-15 08:18N 25°01' E 119°58'1013.4
2015-Apr-15 07:32N 24°51' E 119°55'12012.9
2015-Apr-14 22:11N 22°51' E 119°54'913.6
2015-Apr-14 21:33N 22°42' E 119°54'1413.7
2015-Apr-14 20:33N 22°29' E 119°53'  
Track history (hours):
 
Tides and Currents Weather Stations Pressure Air Temp Water Temp Dewpoint Dewpoint Depression Visibility Wind Speed Wind Dir Waves Ship Positions

Long Hua

Last reported at 2015-Apr-17 22:32 UTC. Time now 2015-Apr-18 03:26 UTC.
Position N 36°02' E 120°19'.

Length 180 m; draft 10 m.

MMSI: 477622800.

Date/timePositionNaut miles runAvg speedWind from/ knotsBaromVisibWave heightAir tempDewpointWater temp
2015-Apr-17 22:32N 36°02' E 120°19'9 9.7
2015-Apr-17 21:33N 36°00' E 120°30'29811.4
2015-Apr-16 19:32N 31°37' E 123°17'2210.4
2015-Apr-16 17:28N 31°15' E 123°18'39812.4
2015-Apr-15 09:26N 25°15' E 120°06'1513.5
2015-Apr-15 08:18N 25°01' E 119°58'1013.4
2015-Apr-15 07:32N 24°51' E 119°55'12012.9
2015-Apr-14 22:11N 22°51' E 119°54'913.6
2015-Apr-14 21:33N 22°42' E 119°54'1413.7
2015-Apr-14 20:33N 22°29' E 119°53'  

Dump ship's entire track history